Time;durP1;ratioP1;P1;durP2;ratioP2;P2;SDS_P1;SDS_P2;PMS_P1;PMS_P2;Temp;Humidity;BMP_temperature;BMP_pressure;BME280_temperature;BME280_humidity;BME280_pressure;Samples;Min_cycle;Max_cycle;Signal;HPM_P1;HPM_P2
2021/08/15 00:01:50;;;;;;;16.40;14.70;;;15.30;99.90;;;;;;4983041;28;20561;-59
2021/08/15 00:04:17;;;;;;;17.43;15.53;;;15.20;99.90;;;;;;4982221;28;20490;-59
2021/08/15 00:06:45;;;;;;;18.57;15.73;;;15.20;99.90;;;;;;4980249;28;20493;-56
2021/08/15 00:44:53;;;;;;;19.37;15.97;;;14.70;99.90;;;;;;5442078;23;20561;31
2021/08/15 00:47:20;;;;;;;19.37;17.40;;;14.70;99.90;;;;;;4962999;28;20938;-58
2021/08/15 00:49:47;;;;;;;25.93;19.00;;;14.80;99.90;;;;;;4960289;28;20490;-58
2021/08/15 00:52:14;;;;;;;18.40;15.53;;;14.80;99.90;;;;;;4963215;28;20937;-56
2021/08/15 00:54:41;;;;;;;23.27;17.60;;;14.70;99.90;;;;;;4961758;28;20467;-59
2021/08/15 00:57:08;;;;;;;17.40;15.70;;;14.70;99.90;;;;;;4961182;28;20469;-59
2021/08/15 00:59:39;;;;;;;18.70;16.80;;;14.70;99.90;;;;;;4963505;28;20808;-59
2021/08/15 01:02:08;;;;;;;20.00;16.70;;;14.60;99.90;;;;;;4960270;29;20895;-60
2021/08/15 01:04:38;;;;;;;20.23;17.17;;;14.60;99.90;;;;;;4962656;28;20557;-60
2021/08/15 01:07:05;;;;;;;20.33;17.13;;;14.60;99.90;;;;;;4958383;29;20853;-60
2021/08/15 01:09:33;;;;;;;19.37;16.37;;;14.50;99.90;;;;;;4961987;28;20494;-60
2021/08/15 01:12:00;;;;;;;18.30;16.07;;;14.60;99.90;;;;;;4958954;29;20557;-60
2021/08/15 01:14:27;;;;;;;18.40;16.40;;;14.60;99.90;;;;;;4962550;28;20524;-60
2021/08/15 01:16:54;;;;;;;20.60;17.10;;;14.50;99.90;;;;;;4959300;28;20565;-60
2021/08/15 01:19:30;;;;;;;18.20;16.43;;;14.50;99.90;;;;;;4963042;28;20561;-60
2021/08/15 01:21:58;;;;;;;19.70;17.60;;;14.50;99.90;;;;;;4959285;28;20477;-60
2021/08/15 01:24:28;;;;;;;21.07;16.57;;;14.40;99.90;;;;;;4975069;28;20470;-60
2021/08/15 01:26:59;;;;;;;17.67;15.97;;;14.30;99.90;;;;;;4975137;28;20553;-60
2021/08/15 02:06:24;;;;;;;16.10;14.50;;;14.00;99.90;;;;;;5487396;23;20478;31
2021/08/15 02:08:54;;;;;;;20.27;16.93;;;13.90;99.90;;;;;;4969691;28;21012;-61
2021/08/15 02:11:21;;;;;;;18.77;16.60;;;13.80;99.90;;;;;;4960625;28;20565;-61
2021/08/15 02:13:48;;;;;;;21.53;15.67;;;13.80;99.90;;;;;;4966472;28;20514;-61
2021/08/15 02:16:16;;;;;;;18.50;16.13;;;13.80;99.90;;;;;;4962346;28;20509;-61
2021/08/15 02:18:43;;;;;;;19.53;16.20;;;13.80;99.90;;;;;;4965876;28;20467;-61
2021/08/15 02:21:10;;;;;;;19.10;17.17;;;13.80;99.90;;;;;;4962782;29;20828;-61
2021/08/15 02:23:37;;;;;;;20.40;16.43;;;13.80;99.90;;;;;;4966105;28;20466;-61
2021/08/15 02:26:05;;;;;;;17.63;15.67;;;13.80;99.90;;;;;;4962616;28;20966;-61
2021/08/15 02:28:32;;;;;;;17.63;15.67;;;13.70;99.90;;;;;;4965588;28;20878;-61
2021/08/15 02:30:59;;;;;;;22.27;16.07;;;13.70;99.90;;;;;;4964610;28;20532;-61
2021/08/15 02:33:31;;;;;;;17.17;15.37;;;13.70;99.90;;;;;;4962674;28;20970;-60
2021/08/15 02:35:58;;;;;;;17.33;15.50;;;13.70;99.90;;;;;;4965507;28;20465;-60
2021/08/15 02:38:25;;;;;;;19.60;16.20;;;13.60;99.90;;;;;;4962334;29;20505;-61
2021/08/15 02:40:52;;;;;;;18.93;16.13;;;13.60;99.90;;;;;;4965987;28;20501;-61
2021/08/15 02:43:21;;;;;;;21.43;15.90;;;13.60;99.90;;;;;;4962267;29;20895;-61
2021/08/15 02:45:48;;;;;;;19.10;16.60;;;13.60;99.90;;;;;;4965571;28;20502;-62
2021/08/15 02:48:15;;;;;;;18.63;16.63;;;13.60;99.90;;;;;;4961845;29;20553;-62
2021/08/15 02:50:42;;;;;;;19.00;16.47;;;13.50;99.90;;;;;;4965691;28;20462;-60
2021/08/15 02:53:09;;;;;;;23.30;16.13;;;13.50;99.90;;;;;;4962241;29;20506;-62
2021/08/15 02:55:36;;;;;;;18.77;16.67;;;13.40;99.90;;;;;;4965112;28;20552;-62
2021/08/15 02:58:03;;;;;;;23.80;16.37;;;13.40;99.90;;;;;;4962146;28;20490;-62
2021/08/15 03:00:32;;;;;;;18.17;16.37;;;13.40;99.90;;;;;;4965185;28;20525;-62
2021/08/15 03:02:58;;;;;;;20.13;16.10;;;13.40;99.90;;;;;;4963618;28;20859;-62
2021/08/15 03:05:25;;;;;;;17.80;16.07;;;13.40;99.90;;;;;;4962849;28;20530;-62
2021/08/15 03:07:52;;;;;;;18.70;16.90;;;13.40;99.90;;;;;;4964524;28;20525;-62
2021/08/15 03:10:19;;;;;;;18.43;16.53;;;13.40;99.90;;;;;;4961852;29;20506;-62
2021/08/15 03:12:46;;;;;;;19.00;16.60;;;13.40;99.90;;;;;;4965403;28;20766;-62
2021/08/15 03:15:13;;;;;;;20.00;16.67;;;13.40;99.90;;;;;;4961095;29;20816;-62
2021/08/15 03:17:42;;;;;;;18.77;16.77;;;13.40;99.90;;;;;;4965138;28;20478;-62
2021/08/15 03:20:10;;;;;;;18.43;16.20;;;13.30;99.90;;;;;;4961383;29;20502;-62
2021/08/15 03:22:37;;;;;;;19.70;17.30;;;13.20;99.90;;;;;;4963810;28;20522;-62
2021/08/15 03:25:07;;;;;;;19.83;17.30;;;13.20;99.90;;;;;;4961725;29;20525;-62
2021/08/15 03:27:34;;;;;;;20.30;16.90;;;13.30;99.90;;;;;;4963293;28;20883;-62
2021/08/15 03:30:07;;;;;;;20.80;17.50;;;13.30;99.90;;;;;;4960894;29;20589;-62
2021/08/15 03:32:34;;;;;;;20.27;17.30;;;13.30;99.90;;;;;;4964511;28;20474;-62
2021/08/15 03:35:02;;;;;;;22.20;18.50;;;13.30;99.90;;;;;;4962557;28;20474;-62
2021/08/15 03:37:29;;;;;;;23.63;19.50;;;13.30;99.90;;;;;;4963338;28;20444;-63
2021/08/15 03:39:58;;;;;;;22.50;18.50;;;13.30;99.90;;;;;;4964960;28;20496;-63
2021/08/15 03:42:25;;;;;;;24.03;20.20;;;13.20;99.90;;;;;;4961014;29;20489;-62
2021/08/15 03:44:52;;;;;;;27.53;22.50;;;13.30;99.90;;;;;;4964614;28;20459;-62
2021/08/15 03:47:19;;;;;;;25.97;22.37;;;13.30;99.90;;;;;;4961201;29;20561;-63
2021/08/15 03:49:46;;;;;;;24.20;21.23;;;13.20;99.90;;;;;;4964883;28;20581;-63
2021/08/15 03:52:14;;;;;;;31.43;24.93;;;13.20;99.90;;;;;;4960889;29;20971;-63
2021/08/15 03:54:42;;;;;;;29.93;22.00;;;13.30;99.90;;;;;;4964557;28;20506;-62
2021/08/15 03:57:08;;;;;;;25.80;22.53;;;13.30;99.90;;;;;;4961215;29;20557;-63
2021/08/15 03:59:35;;;;;;;32.63;25.23;;;13.30;99.90;;;;;;4964663;28;20466;-63
2021/08/15 04:02:04;;;;;;;28.43;25.13;;;13.30;99.90;;;;;;4960693;29;20475;-63
2021/08/15 04:04:31;;;;;;;31.67;25.93;;;13.20;99.90;;;;;;4963972;28;20946;-63
2021/08/15 04:07:01;;;;;;;31.37;25.60;;;13.20;99.90;;;;;;4960122;28;20526;-63
2021/08/15 04:09:30;;;;;;;26.63;23.73;;;13.30;99.90;;;;;;4963634;28;20522;-63
2021/08/15 04:12:00;;;;;;;30.17;24.57;;;13.30;99.90;;;;;;4963702;28;20475;-63
2021/08/15 04:14:26;;;;;;;29.37;26.47;;;13.30;99.90;;;;;;4960659;29;20463;-63
2021/08/15 04:16:53;;;;;;;29.17;26.00;;;13.30;99.90;;;;;;4963440;28;20926;-63
2021/08/15 04:19:22;;;;;;;35.57;28.07;;;13.30;99.90;;;;;;4960620;29;20509;-63
2021/08/15 04:21:52;;;;;;;27.40;24.33;;;13.30;99.90;;;;;;4966314;28;20894;-63
2021/08/15 04:24:20;;;;;;;30.93;27.20;;;13.30;99.90;;;;;;4979706;28;20470;-63
2021/08/15 04:26:48;;;;;;;28.23;24.67;;;13.40;99.90;;;;;;4975397;28;20462;-63
2021/08/15 04:29:16;;;;;;;33.57;25.90;;;13.40;99.90;;;;;;4979644;28;20588;-63
2021/08/15 04:31:46;;;;;;;29.73;23.80;;;13.40;99.90;;;;;;4975013;28;20478;-63
2021/08/15 04:34:13;;;;;;;30.90;25.60;;;13.40;99.90;;;;;;4978960;28;20525;-63
2021/08/15 04:36:43;;;;;;;27.23;23.20;;;13.40;99.90;;;;;;4974596;28;20465;-63
2021/08/15 04:39:10;;;;;;;24.77;22.20;;;13.40;99.90;;;;;;4979576;28;20458;-63
2021/08/15 04:41:37;;;;;;;26.97;23.07;;;13.30;99.90;;;;;;4979486;28;20509;-63
2021/08/15 04:44:05;;;;;;;35.07;24.87;;;13.30;99.90;;;;;;4979463;28;20469;-63
2021/08/15 04:46:32;;;;;;;32.80;26.00;;;13.40;99.90;;;;;;4979312;28;20473;-63
2021/08/15 04:48:59;;;;;;;36.10;25.87;;;13.50;99.90;;;;;;4970771;28;20491;-63
2021/08/15 04:51:28;;;;;;;30.67;25.10;;;13.50;99.90;;;;;;4959940;28;20526;-64
2021/08/15 04:53:55;;;;;;;33.90;24.67;;;13.60;99.90;;;;;;4959414;29;20478;-63
2021/08/15 04:56:24;;;;;;;30.10;25.23;;;13.70;99.90;;;;;;4959666;29;20509;-64
2021/08/15 04:58:51;;;;;;;29.73;25.63;;;13.70;99.90;;;;;;4959769;29;20506;-63
2021/08/15 05:01:20;;;;;;;31.07;24.87;;;13.80;99.90;;;;;;4959784;29;20604;-63
2021/08/15 05:03:48;;;;;;;31.50;24.57;;;13.90;99.90;;;;;;4959523;29;20469;-63
2021/08/15 05:06:14;;;;;;;28.83;25.70;;;13.90;99.90;;;;;;4959043;29;20957;-63
2021/08/15 05:08:41;;;;;;;28.40;24.80;;;13.90;99.90;;;;;;4961813;28;21000;-63
2021/08/15 05:11:08;;;;;;;31.40;24.83;;;14.10;99.90;;;;;;4967985;28;20502;-63
2021/08/15 05:13:35;;;;;;;28.00;24.57;;;14.10;99.90;;;;;;4978801;28;20819;-63
2021/08/15 05:16:02;;;;;;;30.87;25.07;;;14.20;99.90;;;;;;4964680;28;20458;-63
2021/08/15 05:18:30;;;;;;;27.13;24.03;;;14.30;99.90;;;;;;4959039;28;20509;-63
2021/08/15 05:21:00;;;;;;;26.23;22.20;;;14.50;99.90;;;;;;4959508;28;20466;-63
2021/08/15 05:23:29;;;;;;;22.90;19.90;;;14.60;99.90;;;;;;4959471;28;20463;-63
2021/08/15 05:25:59;;;;;;;24.53;22.00;;;14.60;99.90;;;;;;4959252;29;20816;-63
2021/08/15 05:28:26;;;;;;;25.50;21.80;;;14.80;99.90;;;;;;4958453;29;20471;-63
2021/08/15 05:30:53;;;;;;;23.70;21.10;;;14.90;99.90;;;;;;4959522;28;20720;-63
2021/08/15 05:33:20;;;;;;;24.83;20.50;;;15.00;99.90;;;;;;4978551;28;20449;-63
2021/08/15 05:35:48;;;;;;;24.77;20.87;;;15.10;99.90;;;;;;4978684;28;20823;-63
2021/08/15 05:38:15;;;;;;;24.50;21.90;;;15.20;99.90;;;;;;4978549;28;20510;-63
2021/08/15 05:40:42;;;;;;;24.47;21.10;;;15.30;99.90;;;;;;4978065;28;20915;-63
2021/08/15 05:43:09;;;;;;;21.97;19.67;;;15.40;99.90;;;;;;4978047;28;20505;-63
2021/08/15 05:45:37;;;;;;;24.03;20.10;;;15.50;99.90;;;;;;4978052;28;20470;-63
2021/08/15 05:48:04;;;;;;;22.60;20.20;;;15.60;99.90;;;;;;4981207;28;20916;-63
2021/08/15 05:50:32;;;;;;;28.03;21.37;;;15.70;99.90;;;;;;4962820;28;20530;-62
2021/08/15 05:53:00;;;;;;;23.40;20.47;;;15.80;99.90;;;;;;4962840;28;20530;-62
2021/08/15 05:55:27;;;;;;;23.50;20.87;;;15.90;99.90;;;;;;4963151;29;20527;-62
2021/08/15 05:57:54;;;;;;;26.47;21.93;;;16.20;99.90;;;;;;4962521;28;20529;-63
2021/08/15 06:00:21;;;;;;;23.73;20.63;;;16.30;99.90;;;;;;4962900;29;20899;-62
2021/08/15 06:02:54;;;;;;;24.70;20.10;;;16.40;99.90;;;;;;4962556;28;20524;-62
2021/08/15 06:05:21;;;;;;;24.90;18.93;;;16.50;99.90;;;;;;4967106;28;20494;-63
2021/08/15 06:07:48;;;;;;;20.57;18.10;;;16.60;99.90;;;;;;4960941;28;20556;-63
2021/08/15 06:10:18;;;;;;;21.73;18.40;;;16.90;99.90;;;;;;4962584;29;20879;-63
2021/08/15 06:12:45;;;;;;;27.83;19.23;;;17.10;99.90;;;;;;4962144;28;20470;-63
2021/08/15 06:15:15;;;;;;;27.63;19.23;;;17.30;99.90;;;;;;4970544;28;20557;-62
2021/08/15 06:17:43;;;;;;;20.57;18.30;;;17.50;99.90;;;;;;4967020;28;20950;-62
2021/08/15 06:20:12;;;;;;;21.50;18.10;;;17.70;99.90;;;;;;4974222;28;20796;-62
2021/08/15 06:22:39;;;;;;;20.13;17.63;;;17.90;99.90;;;;;;4973599;28;20540;-63
2021/08/15 06:25:11;;;;;;;19.07;16.80;;;18.00;99.90;;;;;;4972269;28;20462;-62
2021/08/15 06:27:43;;;;;;;21.87;17.10;;;17.90;99.90;;;;;;4981384;28;20814;-62
2021/08/15 06:30:12;;;;;;;22.87;18.23;;;17.90;99.90;;;;;;4972158;28;20943;-62
2021/08/15 06:32:46;;;;;;;22.37;16.67;;;18.20;99.90;;;;;;4976420;28;20755;-62
2021/08/15 06:35:15;;;;;;;20.17;15.77;;;18.60;99.90;;;;;;4980965;28;20504;-62
2021/08/15 06:37:42;;;;;;;20.90;16.10;;;18.90;99.90;;;;;;4963284;28;20482;-61
2021/08/15 06:40:13;;;;;;;19.07;14.67;;;19.20;99.90;;;;;;4961543;28;20505;-62
2021/08/15 06:42:42;;;;;;;24.33;13.97;;;19.40;99.90;;;;;;4961777;28;20821;-61
2021/08/15 06:45:09;;;;;;;16.30;14.60;;;19.80;99.90;;;;;;4960792;29;20497;-61
2021/08/15 06:47:39;;;;;;;18.13;14.13;;;20.20;99.90;;;;;;4961079;28;20557;-61
2021/08/15 06:50:08;;;;;;;18.27;14.30;;;20.40;99.90;;;;;;4975682;28;20489;-61
2021/08/15 06:52:35;;;;;;;20.10;14.07;;;20.50;99.90;;;;;;4979307;28;20476;-61
2021/08/15 06:55:03;;;;;;;16.80;14.30;;;20.60;99.90;;;;;;4960974;29;20471;-60
2021/08/15 06:57:30;;;;;;;19.47;13.43;;;20.80;99.90;;;;;;4960741;28;20557;-59
2021/08/15 07:00:02;;;;;;;17.90;13.00;;;21.00;99.90;;;;;;4961282;29;20887;-56
2021/08/15 07:02:29;;;;;;;15.93;13.10;;;21.20;99.90;;;;;;4961478;28;20466;-59
2021/08/15 07:04:56;;;;;;;17.80;12.83;;;21.40;99.90;;;;;;4960681;29;20975;-59
2021/08/15 07:07:25;;;;;;;17.17;11.80;;;21.60;99.90;;;;;;4968120;28;20503;-60
2021/08/15 07:09:54;;;;;;;17.37;12.23;;;21.80;99.90;;;;;;4977001;28;20503;-60
2021/08/15 07:12:21;;;;;;;15.20;12.10;;;22.20;99.90;;;;;;4969959;28;20470;-60
2021/08/15 07:14:48;;;;;;;16.77;12.20;;;22.40;99.90;;;;;;4963073;28;20858;-61
2021/08/15 07:17:16;;;;;;;13.07;11.07;;;22.30;99.90;;;;;;4979948;28;20842;-60
2021/08/15 07:19:46;;;;;;;16.27;11.70;;;22.50;99.90;;;;;;4974645;28;20558;-59
2021/08/15 07:22:14;;;;;;;16.63;10.80;;;23.00;99.90;;;;;;4960948;29;20503;-56
2021/08/15 07:24:41;;;;;;;15.77;11.70;;;23.40;99.90;;;;;;4960995;29;20888;-56
2021/08/15 07:27:14;;;;;;;13.03;10.30;;;23.80;99.90;;;;;;4979263;28;20557;-56
2021/08/15 07:29:41;;;;;;;15.17;10.10;;;24.30;99.90;;;;;;4979994;28;20498;-60
2021/08/15 07:32:09;;;;;;;11.73;8.70;;;24.30;99.90;;;;;;4979918;28;20520;-58
2021/08/15 07:34:37;;;;;;;12.13;9.40;;;24.20;99.90;;;;;;4975032;28;20466;-60
2021/08/15 07:37:06;;;;;;;13.53;9.50;;;24.00;99.90;;;;;;4979786;28;20806;-60
2021/08/15 07:39:33;;;;;;;10.60;8.73;;;24.00;99.90;;;;;;4975558;28;20830;-60
2021/08/15 07:42:00;;;;;;;9.90;8.80;;;24.20;99.90;;;;;;4979656;28;20560;-58
2021/08/15 07:44:27;;;;;;;8.43;7.50;;;24.60;99.90;;;;;;4975077;28;20462;-59
2021/08/15 07:46:54;;;;;;;8.70;7.40;;;25.00;99.90;;;;;;4962116;28;20911;-58
2021/08/15 07:49:26;;;;;;;11.17;7.40;;;25.20;95.20;;;;;;4967477;28;20499;-57
2021/08/15 07:51:55;;;;;;;8.50;6.73;;;25.20;95.80;;;;;;4963192;29;20514;-57
2021/08/15 07:54:22;;;;;;;8.07;6.97;;;25.50;95.50;;;;;;4966599;28;20494;-56
2021/08/15 07:56:51;;;;;;;8.77;6.50;;;25.70;94.60;;;;;;4961047;28;20913;-59
2021/08/15 07:59:18;;;;;;;8.47;5.40;;;26.00;86.30;;;;;;4975823;28;20466;-58
2021/08/15 08:01:45;;;;;;;6.50;5.80;;;26.20;84.40;;;;;;4977139;28;20521;-57
2021/08/15 08:04:12;;;;;;;8.70;5.97;;;25.50;83.00;;;;;;4977302;28;20532;-59
2021/08/15 08:06:42;;;;;;;7.53;5.73;;;25.50;86.40;;;;;;4975627;28;20495;-58
2021/08/15 08:09:13;;;;;;;8.63;6.03;;;25.90;83.30;;;;;;4979111;28;20533;-56
2021/08/15 08:11:39;;;;;;;10.67;7.03;;;26.30;81.90;;;;;;4975262;28;20548;-56
2021/08/15 08:14:06;;;;;;;5.30;4.80;;;26.50;79.30;;;;;;4978798;28;20470;-52
2021/08/15 08:16:35;;;;;;;8.27;4.90;;;26.80;82.50;;;;;;4975819;28;20553;-56
2021/08/15 08:19:04;;;;;;;7.90;6.07;;;27.10;79.80;;;;;;4975369;28;20975;-56
2021/08/15 08:21:32;;;;;;;8.50;6.00;;;27.20;75.90;;;;;;4965849;28;20526;-58
2021/08/15 08:24:04;;;;;;;6.70;5.30;;;27.40;72.10;;;;;;4975196;28;20576;-58
2021/08/15 08:26:32;;;;;;;6.80;5.40;;;27.20;69.50;;;;;;4967055;28;20533;-53
2021/08/15 08:28:59;;;;;;;4.87;3.70;;;27.00;72.50;;;;;;4972402;28;20560;-53
2021/08/15 08:31:26;;;;;;;6.47;4.93;;;27.20;70.80;;;;;;4979269;28;20588;-57
2021/08/15 08:33:55;;;;;;;6.53;5.00;;;27.30;68.60;;;;;;4979320;28;20462;-53
2021/08/15 08:36:25;;;;;;;5.37;4.87;;;27.00;69.50;;;;;;4979852;28;20501;-59
2021/08/15 08:38:55;;;;;;;5.70;5.20;;;26.90;70.00;;;;;;4979079;28;20497;-59
2021/08/15 08:41:22;;;;;;;6.97;5.03;;;27.20;69.90;;;;;;4979282;28;20828;-52
2021/08/15 08:43:52;;;;;;;6.20;5.10;;;27.10;69.00;;;;;;4979470;28;20913;-56
2021/08/15 08:46:26;;;;;;;6.93;4.60;;;27.10;69.30;;;;;;4979483;28;20472;-59
2021/08/15 08:48:53;;;;;;;11.90;5.53;;;27.20;69.90;;;;;;4977460;28;20466;-58
2021/08/15 08:51:21;;;;;;;5.57;4.80;;;27.40;67.80;;;;;;4972488;28;20604;-59
2021/08/15 08:53:50;;;;;;;7.87;5.27;;;27.00;66.30;;;;;;4965495;28;20534;-59
2021/08/15 08:56:23;;;;;;;7.73;4.87;;;26.80;69.50;;;;;;4975163;28;20867;-59
2021/08/15 08:58:52;;;;;;;6.53;4.50;;;26.70;66.60;;;;;;4978495;28;20466;-58
2021/08/15 09:01:19;;;;;;;7.10;4.73;;;26.50;69.50;;;;;;4963526;28;20553;-59
2021/08/15 09:03:50;;;;;;;7.43;5.43;;;26.30;69.90;;;;;;4959214;28;20493;-55
2021/08/15 09:06:24;;;;;;;7.27;5.50;;;25.80;70.80;;;;;;4960543;28;20757;-58
2021/08/15 09:08:52;;;;;;;7.17;5.23;;;25.50;73.10;;;;;;4962589;28;20778;-58
2021/08/15 09:11:21;;;;;;;7.33;5.17;;;25.40;75.50;;;;;;4960465;28;21101;-56
2021/08/15 09:14:04;;;;;;;7.10;5.10;;;25.60;76.20;;;;;;4971441;28;20470;-57
2021/08/15 09:16:50;;;;;;;9.20;4.33;;;25.60;73.80;;;;;;4970190;28;20462;-57
2021/08/15 09:19:27;;;;;;;5.53;4.30;;;25.60;73.80;;;;;;4958711;28;20553;-59
2021/08/15 09:21:56;;;;;;;7.67;4.50;;;25.50;75.20;;;;;;4967112;28;20528;-53
2021/08/15 09:24:23;;;;;;;6.30;4.90;;;25.50;75.60;;;;;;4979019;28;20501;-59
2021/08/15 09:26:58;;;;;;;7.00;4.93;;;25.50;77.20;;;;;;4978429;28;20965;-59
2021/08/15 09:29:27;;;;;;;9.00;4.90;;;25.80;77.00;;;;;;4978398;28;20854;-57
2021/08/15 09:31:56;;;;;;;6.03;5.07;;;25.90;74.70;;;;;;4977981;28;20601;-57
2021/08/15 09:34:28;;;;;;;5.70;5.20;;;26.00;76.50;;;;;;4978617;28;20480;-57
2021/08/15 09:36:58;;;;;;;5.83;4.70;;;26.10;74.40;;;;;;4978519;28;20466;-55
2021/08/15 09:39:32;;;;;;;7.40;4.30;;;26.10;72.40;;;;;;4973832;28;20985;-57
2021/08/15 09:42:02;;;;;;;7.83;4.20;;;26.40;72.50;;;;;;4970123;28;20470;-57
2021/08/15 09:44:31;;;;;;;6.63;4.50;;;26.40;71.40;;;;;;4976986;28;20883;-56
2021/08/15 09:47:07;;;;;;;7.97;5.10;;;26.30;71.90;;;;;;4977149;28;20552;-57
2021/08/15 09:49:40;;;;;;;8.50;4.57;;;26.10;72.40;;;;;;4974359;28;20559;-54
2021/08/15 09:52:09;;;;;;;5.17;3.93;;;26.10;72.40;;;;;;4977094;28;20525;-56
2021/08/15 09:54:40;;;;;;;5.77;4.50;;;25.90;72.60;;;;;;4977852;28;20879;-55
2021/08/15 09:57:10;;;;;;;6.50;4.70;;;26.10;73.00;;;;;;4977660;28;20568;-56
2021/08/15 09:59:42;;;;;;;7.00;4.87;;;26.10;72.20;;;;;;4978015;28;20954;-57
2021/08/15 10:02:16;;;;;;;5.67;4.87;;;26.10;71.90;;;;;;4977147;28;20466;-55
2021/08/15 10:04:42;;;;;;;7.37;4.43;;;26.50;71.60;;;;;;4978336;28;20545;-56
2021/08/15 10:07:12;;;;;;;4.47;4.03;;;26.70;70.80;;;;;;4977445;28;20580;-54
2021/08/15 10:09:40;;;;;;;4.83;4.33;;;27.10;69.40;;;;;;4978401;28;20498;-56
2021/08/15 10:12:11;;;;;;;6.30;4.23;;;27.60;68.70;;;;;;4977314;28;20954;-54
2021/08/15 10:14:44;;;;;;;4.93;4.43;;;27.90;67.10;;;;;;4978093;28;20480;-54
2021/08/15 10:17:15;;;;;;;5.33;4.30;;;28.00;65.40;;;;;;4978125;28;20969;-51
2021/08/15 10:19:57;;;;;;;14.13;4.70;;;28.40;64.70;;;;;;4971334;28;20537;-56
2021/08/15 10:22:30;;;;;;;6.40;5.00;;;28.40;62.10;;;;;;4977669;28;20545;-56
2021/08/15 10:25:04;;;;;;;5.23;4.40;;;27.90;63.80;;;;;;4978203;28;20489;-53
2021/08/15 10:27:50;;;;;;;6.30;5.00;;;27.00;64.30;;;;;;4977786;28;20436;-56
2021/08/15 10:30:46;;;;;;;5.73;4.00;;;27.20;67.80;;;;;;4978403;28;20862;-53
2021/08/15 10:33:20;;;;;;;5.73;4.40;;;27.80;66.60;;;;;;4926903;29;20485;-53
2021/08/15 10:36:22;;;;;;;6.50;4.50;;;27.60;63.10;;;;;;4974146;28;20555;-56
2021/08/15 10:38:51;;;;;;;6.73;4.20;;;27.90;63.20;;;;;;4981354;28;20874;-49
2021/08/15 10:41:52;;;;;;;6.63;4.17;;;28.20;63.00;;;;;;4981291;28;20798;-56
2021/08/15 10:44:20;;;;;;;7.27;4.40;;;28.50;60.70;;;;;;4976595;28;20485;-51
2021/08/15 10:47:14;;;;;;;5.60;4.63;;;28.00;60.70;;;;;;4981073;28;20879;-56
2021/08/15 10:49:55;;;;;;;6.93;4.47;;;27.60;61.10;;;;;;4981201;28;20500;-56
2021/08/15 10:52:27;;;;;;;5.63;4.73;;;27.70;62.90;;;;;;4981134;28;20493;-55
2021/08/15 10:55:03;;;;;;;6.63;4.43;;;28.60;63.00;;;;;;4980862;28;20930;-51
2021/08/15 10:57:55;;;;;;;4.33;3.93;;;28.70;61.00;;;;;;4981217;28;20568;-51
2021/08/15 11:00:58;;;;;;;6.60;4.57;;;28.60;58.80;;;;;;4980993;28;20937;-52
2021/08/15 11:04:00;;;;;;;6.20;4.70;;;28.80;57.70;;;;;;4980352;28;20560;-51
2021/08/15 11:06:47;;;;;;;6.33;5.30;;;29.00;57.50;;;;;;4981026;28;20457;-53
2021/08/15 11:09:15;;;;;;;5.07;4.57;;;28.60;56.00;;;;;;4980516;28;20470;-51
2021/08/15 11:12:16;;;;;;;5.47;4.93;;;28.60;56.50;;;;;;4974916;28;21007;-56
2021/08/15 11:15:22;;;;;;;6.03;4.90;;;28.10;57.60;;;;;;4979658;28;20466;-57
2021/08/15 11:18:10;;;;;;;7.20;4.53;;;28.00;57.30;;;;;;4977718;28;21000;-55
2021/08/15 11:20:45;;;;;;;4.93;4.37;;;28.00;56.20;;;;;;4968444;28;20466;-57
2021/08/15 11:23:19;;;;;;;6.00;5.27;;;27.90;56.40;;;;;;4974518;28;20469;-54
2021/08/15 11:25:48;;;;;;;6.20;4.67;;;27.60;56.90;;;;;;4973077;28;20955;-49
2021/08/15 11:28:16;;;;;;;6.07;5.20;;;27.50;58.50;;;;;;4980820;28;20828;-53
2021/08/15 11:30:44;;;;;;;7.97;5.13;;;27.60;58.90;;;;;;4975602;28;20556;-50
2021/08/15 11:33:11;;;;;;;5.87;4.63;;;27.60;60.00;;;;;;4978796;28;20901;-54
2021/08/15 11:35:44;;;;;;;5.43;4.73;;;27.50;58.50;;;;;;4978399;28;20564;-54
2021/08/15 11:38:12;;;;;;;5.77;5.20;;;28.30;58.90;;;;;;4972705;28;20466;-55
2021/08/15 11:40:54;;;;;;;5.30;4.57;;;28.50;57.40;;;;;;4979843;28;20454;-53
2021/08/15 11:43:27;;;;;;;5.03;4.53;;;29.20;58.20;;;;;;4978533;28;20910;-57
2021/08/15 12:24:41;;;;;;;6.83;5.23;;;27.60;59.60;;;;;;4691367;23;20496;-59
2021/08/15 12:27:11;;;;;;;5.70;5.10;;;27.70;57.90;;;;;;4980027;28;20524;-58
2021/08/15 12:29:40;;;;;;;5.90;5.30;;;28.50;57.90;;;;;;4980243;28;20505;-57
2021/08/15 13:08:32;;;;;;;7.73;5.10;;;29.60;50.20;;;;;;5076225;23;20485;-59
2021/08/15 13:11:01;;;;;;;7.50;4.70;;;29.70;50.20;;;;;;4997950;28;20760;-59
2021/08/15 13:13:27;;;;;;;6.47;5.57;;;30.20;49.70;;;;;;5001516;28;20572;-58
2021/08/15 13:15:55;;;;;;;5.80;4.90;;;30.50;49.90;;;;;;4998432;28;20503;-59
2021/08/15 13:18:27;;;;;;;6.13;5.53;;;31.00;47.80;;;;;;5001639;28;20461;-59
2021/08/15 13:20:57;;;;;;;9.93;5.93;;;31.10;49.50;;;;;;4998229;28;20892;-59
2021/08/15 13:23:23;;;;;;;9.90;5.50;;;31.00;48.20;;;;;;5000921;28;20461;-60
2021/08/15 13:25:54;;;;;;;5.20;4.73;;;30.80;48.50;;;;;;5000333;28;20805;-60
2021/08/15 13:28:21;;;;;;;6.97;4.90;;;30.20;48.20;;;;;;4998547;28;20835;-60
2021/08/15 13:30:49;;;;;;;5.37;4.87;;;30.60;49.70;;;;;;5001288;28;20464;-60
2021/08/15 13:33:19;;;;;;;7.23;5.30;;;30.90;49.00;;;;;;4997287;28;20548;-59
2021/08/15 13:35:46;;;;;;;7.97;5.80;;;30.90;48.50;;;;;;5000985;28;20563;-59
2021/08/15 13:38:15;;;;;;;6.70;4.90;;;30.60;48.00;;;;;;4997981;28;20827;-59
2021/08/15 14:16:12;;;;;;;10.23;8.53;;;30.00;48.60;;;;;;3946388;23;20477;-57
2021/08/15 14:18:39;;;;;;;8.20;4.70;;;30.30;47.60;;;;;;4999379;28;20464;-58
2021/08/15 14:21:08;;;;;;;9.43;5.03;;;30.00;48.00;;;;;;4985653;28;20543;-58
2021/08/15 15:00:27;;;;;;;8.87;4.93;;;30.70;44.90;;;;;;5244316;23;20484;-58
2021/08/15 15:03:00;;;;;;;4.63;4.23;;;30.40;45.40;;;;;;5000151;28;20461;-58
2021/08/15 15:05:27;;;;;;;6.97;4.30;;;30.40;45.50;;;;;;5000698;28;20858;-55
2021/08/15 15:07:54;;;;;;;5.53;4.90;;;30.20;46.00;;;;;;5000238;28;20472;-53
2021/08/15 15:10:21;;;;;;;6.37;4.50;;;30.10;46.80;;;;;;4999855;28;20476;-57
2021/08/15 15:12:48;;;;;;;5.60;5.07;;;29.60;47.00;;;;;;4988617;28;20588;-58
2021/08/15 15:15:16;;;;;;;6.27;4.97;;;29.40;48.00;;;;;;4985403;28;20893;-52
2021/08/15 15:17:45;;;;;;;6.50;4.67;;;29.20;48.80;;;;;;4994306;28;20466;-55
2021/08/15 15:20:15;;;;;;;5.90;4.80;;;29.20;49.00;;;;;;4997869;28;20488;-55
2021/08/15 15:22:45;;;;;;;4.93;4.53;;;29.90;48.20;;;;;;4990214;28;20898;-54
2021/08/15 15:25:13;;;;;;;7.90;4.87;;;30.00;47.80;;;;;;4997072;28;20473;-56
2021/08/15 15:27:40;;;;;;;5.70;4.67;;;29.40;47.50;;;;;;4998209;28;20758;-56
2021/08/15 15:30:13;;;;;;;6.13;5.37;;;28.80;48.10;;;;;;4996873;28;20551;-58
2021/08/15 15:32:40;;;;;;;11.03;4.90;;;28.80;48.80;;;;;;4998888;28;20941;-58
2021/08/15 15:35:12;;;;;;;6.20;5.33;;;29.20;48.40;;;;;;4999062;28;20555;-56
2021/08/15 15:37:39;;;;;;;5.53;4.90;;;29.10;48.20;;;;;;4999510;28;20469;-55
2021/08/15 15:40:10;;;;;;;4.87;4.23;;;28.50;48.80;;;;;;4999422;28;20504;-57
2021/08/15 15:42:37;;;;;;;5.47;4.90;;;28.10;50.10;;;;;;4999397;28;20527;-57
2021/08/15 15:45:09;;;;;;;5.20;4.27;;;28.00;50.20;;;;;;4994670;28;20569;-50
2021/08/15 15:47:39;;;;;;;5.50;4.87;;;27.90;50.30;;;;;;4998857;28;20505;-57
2021/08/15 15:50:09;;;;;;;6.70;4.80;;;27.80;50.40;;;;;;4999099;28;20904;-57
2021/08/15 15:52:38;;;;;;;6.70;4.93;;;27.70;50.80;;;;;;4999135;28;20579;-58
2021/08/15 15:55:06;;;;;;;5.53;3.83;;;27.60;51.50;;;;;;4997708;28;20567;-55
2021/08/15 15:57:34;;;;;;;6.53;4.43;;;27.60;52.00;;;;;;4999344;28;20504;-58
2021/08/15 16:00:01;;;;;;;6.73;4.87;;;27.50;52.00;;;;;;4998979;28;20493;-57
2021/08/15 16:02:28;;;;;;;8.67;4.63;;;27.40;52.10;;;;;;4997377;28;20460;-52
2021/08/15 16:04:55;;;;;;;6.40;4.40;;;27.40;52.30;;;;;;4997542;28;20464;-49
2021/08/15 16:07:26;;;;;;;7.83;5.23;;;27.50;52.40;;;;;;4998293;28;20832;-56
2021/08/15 16:09:53;;;;;;;5.53;4.50;;;27.40;52.20;;;;;;4998953;28;20482;-48
2021/08/15 16:12:24;;;;;;;5.10;4.70;;;27.40;52.20;;;;;;4998640;28;20566;-53
2021/08/15 16:14:51;;;;;;;6.70;5.40;;;27.30;52.90;;;;;;4994692;28;20956;-57
2021/08/15 16:51:49;;;;;;;6.10;5.50;;;26.90;56.10;;;;;;5508801;23;20468;-56
2021/08/15 16:54:15;;;;;;;8.70;5.60;;;27.10;56.30;;;;;;4996833;28;20873;-54
2021/08/15 16:56:42;;;;;;;6.70;4.93;;;27.10;55.70;;;;;;4991268;28;20564;-56
2021/08/15 17:33:44;;;;;;;5.53;4.97;;;25.80;58.10;;;;;;5309271;23;20872;-55
2021/08/15 17:36:15;;;;;;;6.77;5.47;;;25.70;58.80;;;;;;5014036;28;20926;-55
2021/08/15 17:38:44;;;;;;;7.20;5.00;;;25.80;59.70;;;;;;5022498;28;20562;-54